| time (UTC) | temp C | wind direction | speed KPH | gust KPH | rain 1hr cm | rain 24hr cm | rain mn cm | humidity % | barometer mb |
| 20260906090406 | 26 | 276 | 1.6 | 3.2 | 0.00 | 0.00 | 0.00 | 73 | 1008.8 |
| 20260906085823 | 26 | 305 | 1.6 | 3.2 | 0.00 | 0.00 | 0.00 | 75 | 1008.9 |
| 20260906084617 | 25 | 334 | 3.2 | 3.2 | 0.00 | 0.00 | 0.00 | 77 | 1008.7 |
| 20260906083751 | 25 | 321 | 3.2 | 6.4 | 0.00 | 0.00 | 0.00 | 78 | 1008.6 |
| 20260906082053 | 23 | 313 | 4.8 | 4.8 | 0.00 | 0.00 | 0.00 | 77 | 1008.5 |
| 20260906081649 | 23 | 304 | 3.2 | 4.8 | 0.00 | 0.00 | 0.00 | 77 | 1008.6 |
| 20260906081153 | 23 | 315 | 4.8 | 8.0 | 0.00 | 0.00 | 0.00 | 74 | 1008.5 |
| 20260906080750 | 23 | 302 | 4.8 | 3.2 | 0.00 | 0.00 | 0.00 | 71 | 1008.6 |
| 20260906075435 | 22 | 299 | 3.2 | 6.4 | 0.00 | 0.00 | 0.00 | 61 | 1008.5 |
| 20260906075217 | 22 | 289 | 1.6 | 6.4 | 0.00 | 0.00 | 0.00 | 61 | 1008.5 |
| 20260906074820 | 22 | 310 | 4.8 | 4.8 | 0.00 | 0.00 | 0.00 | 60 | 1008.5 |
| 20260906073819 | 21 | 295 | 3.2 | 4.8 | 0.00 | 0.00 | 0.00 | 56 | 1008.4 |
| 20260906072820 | 21 | 333 | 3.2 | 6.4 | 0.00 | 0.00 | 0.00 | 55 | 1008.4 |
| 20260906071819 | 21 | 316 | 3.2 | 8.0 | 0.00 | 0.00 | 0.00 | 57 | 1008.3 |
| 20260906070819 | 21 | 321 | 1.6 | 4.8 | 0.00 | 0.00 | 0.00 | 58 | 1008.2 |
| 20260906065818 | 21 | 289 | 1.6 | 3.2 | 0.00 | 0.00 | 0.00 | 59 | 1008.1 |
| 20260906064818 | 20 | 305 | 3.2 | 3.2 | 0.00 | 0.00 | 0.00 | 60 | 1008.2 |
| 20260906063818 | 20 | 302 | 1.6 | 3.2 | 0.00 | 0.00 | 0.00 | 60 | 1008.1 |
| 20260906062818 | 20 | 292 | 1.6 | 3.2 | 0.00 | 0.00 | 0.00 | 60 | 1008.1 |
| 20260906061818 | 20 | 293 | 0.0 | 1.6 | 0.00 | 0.00 | 0.00 | 60 | 1008.0 |
| 20260906060818 | 20 | 294 | 1.6 | 3.2 | 0.00 | 0.00 | 0.00 | 59 | 1008.0 |
| 20260906055817 | 21 | 292 | 1.6 | 1.6 | 0.00 | 0.00 | 0.00 | 54 | 1007.9 |
| 20260906054818 | 21 | 292 | 1.6 | 3.2 | 0.00 | 0.00 | 0.00 | 48 | 1007.9 |
| 20260906053818 | 21 | 283 | 3.2 | 3.2 | 0.00 | 0.00 | 0.00 | 43 | 1007.7 |
| 20260906052817 | 20 | 270 | 1.6 | 3.2 | 0.00 | 0.00 | 0.00 | 44 | 1007.7 |
| 20260906051817 | 20 | 270 | 0.0 | 1.6 | 0.00 | 0.00 | 0.00 | 43 | 1007.6 |
| 20260906050819 | 19 | 248 | 3.2 | 4.8 | 0.00 | 0.00 | 0.00 | 44 | 1007.7 |
| 20260906045817 | 19 | 273 | 1.6 | 3.2 | 0.00 | 0.00 | 0.00 | 46 | 1007.7 |
| 20260906044817 | 18 | 270 | 1.6 | 1.6 | 0.00 | 0.00 | 0.00 | 47 | 1007.6 |
| 20260906043818 | 18 | 270 | 0.0 | 1.6 | 0.00 | 0.00 | 0.00 | 48 | 1007.6 |
| 20260906042817 | 19 | 270 | 1.6 | 3.2 | 0.00 | 0.00 | 0.00 | 48 | 1007.6 |
| 20260906041818 | 19 | 270 | 1.6 | 3.2 | 0.00 | 0.00 | 0.00 | 48 | 1007.5 |
| 20260906040818 | 19 | 248 | 1.6 | 1.6 | 0.00 | 0.00 | 0.00 | 50 | 1007.6 |
| 20260906035817 | 19 | 270 | 0.0 | 1.6 | 0.00 | 0.00 | 0.00 | 51 | 1007.6 |
| 20260906034818 | 19 | 315 | 1.6 | 1.6 | 0.00 | 0.00 | 0.00 | 50 | 1007.5 |
| 20260906033818 | 20 | 270 | 0.0 | 1.6 | 0.00 | 0.00 | 0.00 | 50 | 1007.3 |
| 20260906032817 | 20 | 270 | 0.0 | 0.0 | 0.00 | 0.00 | 0.00 | 50 | 1007.3 |
| 20260906031817 | 20 | 272 | 0.0 | 0.0 | 0.00 | 0.00 | 0.00 | 51 | 1007.3 |
| 20260906030818 | 20 | 289 | 0.0 | 1.6 | 0.00 | 0.00 | 0.00 | 51 | 1007.3 |
| 20260906025817 | 20 | 248 | 1.6 | 3.2 | 0.00 | 0.00 | 0.00 | 52 | 1007.3 |
| 20260906024818 | 20 | 225 | 1.6 | 1.6 | 0.00 | 0.00 | 0.00 | 55 | 1007.3 |
| 20260906023816 | 20 | 270 | 1.6 | 3.2 | 0.00 | 0.00 | 0.00 | 58 | 1007.4 |
| 20260906022817 | 20 | 270 | 0.0 | 0.0 | 0.00 | 0.00 | 0.00 | 60 | 1007.4 |
| 20260906021816 | 20 | 270 | 0.0 | 0.0 | 0.00 | 0.00 | 0.00 | 61 | 1007.4 |
| 20260906020816 | 20 | 248 | 1.6 | 1.6 | 0.00 | 0.00 | 0.00 | 62 | 1007.4 |
| 20260906015817 | 20 | 202 | 3.2 | 4.8 | 0.00 | 0.00 | 0.00 | 62 | 1007.3 |
| 20260906014816 | 20 | 203 | 1.6 | 3.2 | 0.00 | 0.00 | 0.00 | 64 | 1007.2 |
| 20260906013817 | 20 | 202 | 1.6 | 3.2 | 0.00 | 0.00 | 0.00 | 65 | 1007.4 |
| 20260906012817 | 20 | 202 | 0.0 | 0.0 | 0.00 | 0.00 | 0.00 | 64 | 1007.4 |
| 20260906011818 | 20 | 202 | 0.0 | 0.0 | 0.00 | 0.00 | 0.00 | 65 | 1007.4 |
| 20260906010818 | 20 | 225 | 1.6 | 3.2 | 0.00 | 0.00 | 0.00 | 64 | 1007.5 |
| 20260906005816 | 20 | 202 | 1.6 | 3.2 | 0.00 | 0.00 | 0.00 | 67 | 1007.5 |
| 20260906004816 | 20 | 204 | 4.8 | 11.3 | 0.00 | 0.00 | 0.00 | 67 | 1007.6 |
| 20260906003817 | 20 | 268 | 3.2 | 8.0 | 0.00 | 0.00 | 0.00 | 68 | 1007.5 |
| 20260906003057 | 20 | 248 | 0.0 | 0.0 | 0.00 | 0.00 | 0.00 | 68 | 1007.5 |
| 20260906002053 | 20 | 248 | 1.6 | 3.2 | 0.00 | 0.00 | 0.00 | 69 | 1007.5 |
| 20260906001054 | 20 | 248 | 0.0 | 1.6 | 0.00 | 0.00 | 0.00 | 70 | 1007.6 |
| 20260905235053 | 20 | 270 | 1.6 | 3.2 | 0.00 | 0.00 | 0.00 | 73 | 1007.5 |
| 20260905234052 | 20 | 225 | 1.6 | 4.8 | 0.00 | 0.00 | 0.00 | 75 | 1007.5 |
| 20260905233059 | 20 | 112 | 0.0 | 0.0 | 0.00 | 0.00 | 0.00 | 75 | 1007.4 |
| 20260905232051 | 21 | 213 | 0.0 | 0.0 | 0.00 | 0.00 | 0.00 | 75 | 1007.6 |
| 20260905231104 | 21 | 201 | 1.6 | 1.6 | 0.00 | 0.00 | 0.00 | 75 | 1007.5 |
| 20260905230058 | 21 | 218 | 1.6 | 3.2 | 0.00 | 0.00 | 0.00 | 75 | 1007.7 |
| 20260905225053 | 21 | 203 | 3.2 | 3.2 | 0.00 | 0.00 | 0.00 | 77 | 1007.5 |
| 20260905224050 | 21 | 248 | 0.0 | 0.0 | 0.00 | 0.00 | 0.00 | 78 | 1007.5 |
| 20260905223100 | 21 | 248 | 0.0 | 0.0 | 0.00 | 0.00 | 0.00 | 78 | 1007.6 |
| 20260905222052 | 21 | 158 | 0.0 | 0.0 | 0.00 | 0.00 | 0.00 | 78 | 1007.5 |
| 20260905221055 | 21 | 135 | 0.0 | 1.6 | 0.00 | 0.00 | 0.00 | 78 | 1007.6 |
| 20260905215056 | 22 | 211 | 4.8 | 6.4 | 0.00 | 0.00 | 0.00 | 77 | 1007.4 |
| 20260905214054 | 22 | 204 | 4.8 | 6.4 | 0.00 | 0.00 | 0.00 | 78 | 1007.2 |
| 20260905213059 | 22 | 135 | 0.0 | 0.0 | 0.00 | 0.00 | 0.00 | 78 | 1007.1 |
| 20260905212053 | 22 | 118 | 1.6 | 1.6 | 0.00 | 0.00 | 0.00 | 78 | 1007.2 |
| 20260905211054 | 22 | 158 | 0.0 | 1.6 | 0.00 | 0.00 | 0.00 | 78 | 1007.1 |
| 20260905210050 | 22 | 225 | 0.0 | 0.0 | 0.00 | 0.00 | 0.00 | 78 | 1007.1 |
| 20260905205816 | 22 | 225 | 0.0 | 0.0 | 0.00 | 0.00 | 0.00 | 78 | 1007.2 |
| 20260905204817 | 23 | 248 | 1.6 | 1.6 | 0.00 | 0.00 | 0.00 | 78 | 1007.2 |
| 20260905203816 | 23 | 222 | 1.6 | 1.6 | 0.00 | 0.00 | 0.00 | 78 | 1007.3 |
| 20260905202815 | 23 | 257 | 3.2 | 6.4 | 0.00 | 0.00 | 0.00 | 77 | 1007.3 |
| 20260905201815 | 23 | 267 | 6.4 | 6.4 | 0.00 | 0.00 | 0.00 | 77 | 1007.3 |
| 20260905200815 | 23 | 212 | 4.8 | 4.8 | 0.00 | 0.00 | 0.00 | 77 | 1007.3 |
| 20260905195815 | 23 | 193 | 4.8 | 6.4 | 0.00 | 0.00 | 0.00 | 76 | 1007.0 |
| 20260905194816 | 23 | 203 | 0.0 | 1.6 | 0.00 | 0.00 | 0.00 | 75 | 1006.9 |
| 20260905193815 | 23 | 198 | 0.0 | 0.0 | 0.00 | 0.00 | 0.00 | 74 | 1007.0 |
| 20260905192814 | 23 | 180 | 0.0 | 0.0 | 0.00 | 0.00 | 0.00 | 73 | 1007.0 |
| 20260905191815 | 24 | 180 | 0.0 | 0.0 | 0.00 | 0.00 | 0.00 | 72 | 1006.8 |
| 20260905190816 | 24 | 158 | 0.0 | 0.0 | 0.00 | 0.00 | 0.00 | 71 | 1006.8 |
| 20260905185815 | 24 | 140 | 0.0 | 1.6 | 0.00 | 0.00 | 0.00 | 69 | 1006.6 |
| 20260905184815 | 24 | 99 | 3.2 | 3.2 | 0.00 | 0.00 | 0.00 | 68 | 1006.6 |
| 20260905183815 | 25 | 114 | 0.0 | 3.2 | 0.00 | 0.00 | 0.00 | 66 | 1006.4 |
| 20260905182814 | 25 | 135 | 0.0 | 0.0 | 0.00 | 0.00 | 0.00 | 64 | 1006.3 |
| 20260905181815 | 26 | 150 | 3.2 | 4.8 | 0.00 | 0.00 | 0.00 | 62 | 1006.1 |
| 20260905180816 | 26 | 353 | 0.0 | 3.2 | 0.00 | 0.00 | 0.00 | 62 | 1006.1 |
| 20260905175816 | 26 | 199 | 1.6 | 3.2 | 0.00 | 0.00 | 0.00 | 60 | 1006.0 |
| 20260905174814 | 26 | 242 | 1.6 | 6.4 | 0.00 | 0.00 | 0.00 | 60 | 1005.9 |
| 20260905173814 | 26 | 244 | 0.0 | 4.8 | 0.00 | 0.00 | 0.00 | 59 | 1005.9 |
| 20260905172814 | 26 | 119 | 4.8 | 6.4 | 0.00 | 0.00 | 0.00 | 58 | 1005.8 |
| 20260905171813 | 27 | 210 | 3.2 | 4.8 | 0.00 | 0.00 | 0.00 | 58 | 1005.8 |
| 20260905170813 | 28 | 247 | 12.9 | 20.9 | 0.00 | 0.00 | 0.00 | 57 | 1005.5 |
| 20260905165813 | 28 | 237 | 12.9 | 17.7 | 0.00 | 0.00 | 0.00 | 54 | 1005.4 |
| 20260905164813 | 28 | 254 | 8.0 | 14.5 | 0.00 | 0.00 | 0.00 | 51 | 1005.4 |
| 20260905163813 | 29 | 239 | 16.1 | 25.7 | 0.00 | 0.00 | 0.00 | 49 | 1005.4 |
| 20260905162809 | 30 | 255 | 14.5 | 14.5 | 0.00 | 0.00 | 0.00 | 46 | 1005.3 |
| 20260905161811 | 30 | 215 | 9.7 | 22.5 | 0.00 | 0.00 | 0.00 | 44 | 1005.4 |
| 20260905160811 | 30 | 241 | 9.7 | 12.9 | 0.00 | 0.00 | 0.00 | 43 | 1005.6 |
| 20260905155810 | 31 | 234 | 11.3 | 16.1 | 0.00 | 0.00 | 0.00 | 42 | 1005.5 |
| 20260905154810 | 31 | 218 | 11.3 | 19.3 | 0.00 | 0.00 | 0.00 | 40 | 1005.5 |
| 20260905153810 | 31 | 266 | 11.3 | 14.5 | 0.00 | 0.00 | 0.00 | 38 | 1005.5 |
| 20260905152811 | 31 | 216 | 8.0 | 14.5 | 0.00 | 0.00 | 0.00 | 40 | 1005.6 |
| 20260905151811 | 32 | 258 | 9.7 | 12.9 | 0.00 | 0.00 | 0.00 | 39 | 1005.5 |
| 20260905150810 | 32 | 268 | 9.7 | 11.3 | 0.00 | 0.00 | 0.00 | 37 | 1005.6 |
| 20260905145810 | 32 | 266 | 9.7 | 9.7 | 0.00 | 0.00 | 0.00 | 37 | 1005.6 |
| 20260905144810 | 32 | 239 | 11.3 | 12.9 | 0.00 | 0.00 | 0.00 | 37 | 1005.7 |
| 20260905143810 | 32 | 269 | 11.3 | 17.7 | 0.00 | 0.00 | 0.00 | 36 | 1005.6 |
| 20260905142810 | 32 | 205 | 11.3 | 11.3 | 0.00 | 0.00 | 0.00 | 34 | 1005.7 |
| 20260905141808 | 33 | 271 | 11.3 | 11.3 | 0.00 | 0.00 | 0.00 | 34 | 1005.8 |
| 20260905140808 | 33 | 247 | 11.3 | 11.3 | 0.00 | 0.00 | 0.00 | 33 | 1005.8 |
| 20260905135809 | 33 | 266 | 6.4 | 8.0 | 0.00 | 0.00 | 0.00 | 34 | 1005.8 |
| 20260905134809 | 32 | 204 | 9.7 | 14.5 | 0.00 | 0.00 | 0.00 | 35 | 1005.9 |
| 20260905133810 | 33 | 262 | 12.9 | 12.9 | 0.00 | 0.00 | 0.00 | 32 | 1006.0 |
| 20260905132809 | 33 | 276 | 12.9 | 20.9 | 0.00 | 0.00 | 0.00 | 32 | 1006.1 |
| 20260905131809 | 33 | 295 | 8.0 | 11.3 | 0.00 | 0.00 | 0.00 | 32 | 1006.2 |
| 20260905130808 | 33 | 259 | 8.0 | 9.7 | 0.00 | 0.00 | 0.00 | 32 | 1006.2 |
| 20260905125808 | 33 | 284 | 6.4 | 12.9 | 0.00 | 0.00 | 0.00 | 33 | 1006.3 |
| 20260905124808 | 33 | 289 | 12.9 | 12.9 | 0.00 | 0.00 | 0.00 | 32 | 1006.4 |
| 20260905123808 | 33 | 268 | 3.2 | 3.2 | 0.00 | 0.00 | 0.00 | 32 | 1006.4 |
| 20260905123224 | 33 | 236 | 8.0 | 12.9 | 0.00 | 0.00 | 0.00 | 32 | 1006.4 |
| 20260905122225 | 33 | 268 | 9.7 | 9.7 | 0.00 | 0.00 | 0.00 | 34 | 1006.5 |
| 20260905121224 | 33 | 259 | 9.7 | 19.3 | 0.00 | 0.00 | 0.00 | 33 | 1006.5 |
| 20260905120226 | 33 | 266 | 11.3 | 17.7 | 0.00 | 0.00 | 0.00 | 32 | 1006.7 |
| 20260905115216 | 33 | 274 | 6.4 | 9.7 | 0.00 | 0.00 | 0.00 | 33 | 1006.7 |
| 20260905114215 | 33 | 260 | 8.0 | 12.9 | 0.00 | 0.00 | 0.00 | 34 | 1006.6 |
| 20260905113216 | 33 | 281 | 12.9 | 16.1 | 0.00 | 0.00 | 0.00 | 34 | 1006.7 |
| 20260905112216 | 33 | 222 | 4.8 | 6.4 | 0.00 | 0.00 | 0.00 | 34 | 1006.6 |
| 20260905111215 | 32 | 321 | 3.2 | 8.0 | 0.00 | 0.00 | 0.00 | 36 | 1006.7 |
| 20260905110215 | 32 | 259 | 4.8 | 11.3 | 0.00 | 0.00 | 0.00 | 39 | 1006.8 |
| 20260905105216 | 31 | 320 | 3.2 | 4.8 | 0.00 | 0.00 | 0.00 | 39 | 1006.9 |
| 20260905104215 | 31 | 296 | 4.8 | 6.4 | 0.00 | 0.00 | 0.00 | 41 | 1006.9 |
| 20260905103217 | 31 | 124 | 8.0 | 9.7 | 0.00 | 0.00 | 0.00 | 41 | 1007.0 |
| 20260905102216 | 31 | 90 | 8.0 | 9.7 | 0.00 | 0.00 | 0.00 | 42 | 1007.0 |
| 20260905101216 | 30 | 90 | 6.4 | 6.4 | 0.00 | 0.00 | 0.00 | 44 | 1007.0 |
| 20260905100216 | 30 | 97 | 6.4 | 9.7 | 0.00 | 0.00 | 0.00 | 44 | 1007.0 |
| 20260905095809 | 30 | 124 | 8.0 | 12.9 | 0.00 | 0.00 | 0.00 | 44 | 1006.9 |
| 20260905094808 | 30 | 112 | 9.7 | 12.9 | 0.00 | 0.00 | 0.00 | 45 | 1006.9 |
| 20260905093807 | 30 | 128 | 6.4 | 9.7 | 0.00 | 0.00 | 0.00 | 45 | 1006.9 |
| 20260905092807 | 29 | 118 | 6.4 | 9.7 | 0.00 | 0.00 | 0.00 | 47 | 1006.8 |
| 20260905091807 | 28 | 103 | 9.7 | 14.5 | 0.00 | 0.00 | 0.00 | 50 | 1006.8 |
| 20260905090807 | 28 | 117 | 6.4 | 6.4 | 0.00 | 0.00 | 0.00 | 51 | 1006.9 |